GSE Systems Price to Sales Ratio 2006-2021 | GVP

Historical PS ratio values for GSE Systems (GVP) over the last 10 years. The current P/S ratio for GSE Systems as of September 20, 2021 is . For more information on how our historical price data is adjusted see the Stock Price Adjustment Guide.
GSE Systems P/S Ratio Historical Data
Date Stock Price TTM Sales per Share Price to Sales Ratio
2021-09-20 1.29 0.51
2021-06-30 1.79 $2.54 0.71
2021-03-31 1.70 $2.59 0.66
2020-12-31 1.32 $2.82 0.47
2020-09-30 1.04 $3.06 0.34
2020-06-30 1.01 $3.44 0.29
2020-03-31 0.93 $3.91 0.24
2019-12-31 1.65 $4.15 0.40
2019-09-30 1.75 $4.45 0.39
2019-06-30 2.34 $4.55 0.51
2019-03-31 2.80 $4.61 0.61
2018-12-31 2.10 $4.67 0.45
2018-09-30 3.60 $4.63 0.78
2018-06-30 3.25 $4.33 0.75
2018-03-31 3.25 $3.97 0.82
2017-12-31 3.25 $3.65 0.89
2017-09-30 3.55 $3.25 1.09
2017-06-30 3.10 $3.23 0.96
2017-03-31 3.40 $3.03 1.12
2016-12-31 3.50 $2.89 1.21
2016-09-30 2.89 $2.98 0.97
2016-06-30 2.23 $3.02 0.74
2016-03-31 2.73 $3.11 0.88
2015-12-31 2.40 $3.17 0.76
2015-09-30 1.49 $3.08 0.48
2015-06-30 1.55 $2.69 0.58
2015-03-31 1.50 $2.39 0.63
2014-12-31 1.59 $2.10 0.76
2014-09-30 1.56 $2.06 0.76
2014-06-30 1.66 $2.28 0.73
2014-03-31 1.74 $2.42 0.72
2013-12-31 1.60 $2.61 0.61
2013-09-30 1.57 $2.62 0.60
2013-06-30 1.51 $2.67 0.57
2013-03-31 2.00 $2.78 0.72
2012-12-31 2.16 $2.83 0.76
2012-09-30 2.03 $2.93 0.69
2012-06-30 2.30 $2.88 0.80
2012-03-31 2.38 $2.76 0.86
2011-12-31 1.95 $2.66 0.73
2011-09-30 1.76 $2.53 0.70
2011-06-30 2.16 $2.50 0.87
2011-03-31 2.26 $2.51 0.90
2010-12-31 3.62 $2.45 1.47
2010-09-30 3.35 $2.46 1.36
2010-06-30 4.06 $2.41 1.68
2010-03-31 5.41 $2.45 2.21
2009-12-31 5.48 $2.37 2.32
2009-09-30 6.22 $2.24 2.77
2009-06-30 6.75 $2.10 3.22
2009-03-31 5.95 $1.88 3.17
2008-12-31 5.90 $1.85 3.20
2008-09-30 7.00 $1.86 3.76
2008-06-30 8.91 $1.88 4.73
2008-03-31 8.08 $2.04 3.97
2007-12-31 10.24 $2.25 4.55
2007-09-30 6.73 $2.55 2.64
2007-06-30 6.60 $2.62 2.52
2007-03-31 6.32 $2.64 2.39
2006-12-31 6.65 $2.59 2.57
Sector Industry Market Cap Revenue
Computer and Technology Computer Software $0.028B $0.058B
GSE Systems, Inc. develops and delivers business and technology solutions by applying process control and simulation software, systems and services to the pharmaceutical and chemical research & development, energy, process and manufacturing industries worldwide. The company's products are used in the following industries: specialty chemical, food and beverage, petroleum refining, pharmaceutical, fossil and nuclear power generation, metals and water treatment. (PRESS RELEASE)
Stock Name Country Market Cap PE Ratio
Microsoft (MSFT) United States $2253.490B 37.63
Adobe (ADBE) United States $311.794B 67.19
Salesforce, Inc (CRM) United States $255.059B 76.18
Oracle (ORCL) United States $236.551B 20.42
SAP SE (SAP) Germany $176.069B 22.39
Intuit (INTU) United States $153.437B 74.91
Dassault Systemes SA (DASTY) France $78.049B 68.53
Autodesk (ADSK) United States $63.350B 105.94
VMware (VMW) United States $58.487B 27.49
Synopsys (SNPS) United States $49.646B 67.82
Cadence Design Systems (CDNS) United States $45.290B 63.42
ANSYS (ANSS) United States $31.815B 63.97
SS&C Technologies Holdings (SSNC) United States $17.957B 16.10
Nuance Communications (NUAN) United States $17.330B 153.06
PTC (PTC) United States $14.454B 50.47
Open Text (OTEX) Canada $13.906B 15.84
Citrix Systems (CTXS) United States $13.861B 32.62
Pegasystems (PEGA) United States $10.746B 0.00
Manhattan Associates (MANH) United States $9.934B 105.87
Aspen Technology (AZPN) United States $8.519B 0.00
Trend Micro (TMICY) Japan $8.059B 30.14
Descartes Systems Group (DSGX) Canada $7.076B 100.75
MicroStrategy (MSTR) United States $5.988B 111.08
BlackBerry (BB) Canada $5.687B 250.75
Cornerstone OnDemand (CSOD) United States $3.815B 22.15
ACI Worldwide (ACIW) United States $3.677B 21.44
Blackbaud (BLKB) United States $3.401B 57.98
CommVault Systems (CVLT) United States $3.396B 88.13
Verint Systems (VRNT) United States $2.904B 21.04
Progress Software (PRGS) United States $2.017B 15.57
Bottomline Technologies (EPAY) United States $1.855B 176.70
QAD (QADB) United States $1.838B 121.51
PROS Holdings (PRO) United States $1.760B 0.00
Sapiens (SPNS) Israel $1.582B 28.31
Canaan (CAN) China $1.267B 0.00
OptimizeRx (OPRX) United States $1.260B 650.00
Avid Technology (AVID) United States $1.228B 30.59
Magic Software Enterprises (MGIC) Israel $1.014B 24.62
Simulations Plus (SLP) United States $0.880B 76.67
American Software (AMSWA) United States $0.811B 87.00
Icad Inc (ICAD) United States $0.261B 0.00
Smith Micro Software (SMSI) United States $0.249B 0.00
ServiceSource (SREV) United States $0.131B 0.00
Park City (PCYG) United States $0.105B 48.91
Neonode (NEON) Sweden $0.069B 0.00
BSQUARE (BSQR) United States $0.050B 0.00
NetSol Technologies (NTWK) United States $0.045B 17.95